AirNav   Everest Fuels
 
 1509 users online  

2S1 Vashon Municipal Airport
Vashon, Washington, USA

GOING TO VASHON?


FAA INFORMATION EFFECTIVE 10 SEPTEMBER 2020

Location

FAA Identifier: 2S1
Lat/Long: 47-27-30.9190N 122-28-37.0990W
47-27.515317N 122-28.618317W
47.4585886,-122.4769719
(estimated)
Elevation: 316 ft. / 96.3 m (surveyed)
Variation: 20E (1985)
From city: 1 mile NW of VASHON, WA
Time zone: UTC -7 (UTC -8 during Standard Time)
Zip code: 98070

Airport Operations

Airport use: Open to the public
Activation date: 10/1949
Control tower: no
ARTCC: SEATTLE CENTER
FSS: SEATTLE FLIGHT SERVICE STATION
NOTAMs facility: SEA (NOTAM-D service available)
Attendance: UNATNDD
Pattern altitude: 1299 ft. MSL
Wind indicator: lighted
Segmented circle: yes
Lights: SS-SR

Airport Communications

CTAF: 122.9
WX ASOS at SEA (7 nm E): PHONE 206-214-2592
WX ASOS at BFI (8 nm NE): PHONE 206-658-6435
WX ASOS at RNT (11 nm E): 126.95 (425-255-6080)
WX AWOS-3PT at PWT (12 nm W): 121.2 (360-674-2811)
WX ASOS at TIW (12 nm S): 124.05 (253-858-6507)
WX ASOS at TCM (19 nm S): PHONE 253-982-3434

Nearby radio navigation aids

VOR radial/distance  VOR name  Freq  Var
SEAr263/6.9SEATTLE VORTAC116.8019E
TCMr345/18.7MCCHORD VORTAC109.6015E
PAEr176/28.8PAINE VOR/DME110.6020E
OLMr012/34.0OLYMPIA VORTAC113.4019E

Airport Services

Parking: tiedowns
Bottled oxygen: NONE
Bulk oxygen: NONE

Runway Information

Runway 17/35

Dimensions: 2001 x 60 ft. / 610 x 18 m
Surface: turf, in good condition
Runway edge lights: non-standard
NSTD LIRL; THR LGTS NON-STD COLORS 360 DEG GREEN.
RUNWAY 17  RUNWAY 35
Latitude: 47-27.678517N47-27.352117N
Longitude: 122-28.587450W122-28.649183W
Elevation: 316.0 ft.308.0 ft.
Traffic pattern: rightleft
Runway heading: 167 magnetic, 187 true347 magnetic, 007 true
Obstructions: 41 ft. trees, 78 ft. left of centerline
TREES IN PRIM SFC AT THR; +5' FENCE & DIRT RD APRX 182' FRM THR.
30 ft. trees, 90 ft. left of centerline
TREES IN PRIM SFC AT THLD; GRAVEL RD 45 FT RIGHT AT THLD.

Helipad H1

Dimensions: 98 x 98 ft. / 30 x 30 m
Surface: turf
Runway edge lights: non-standard
YELLOW PERIMETER LGTS.
Operational restrictions: FOR MEDIVAC EMERG MED SVCS ONLY.
Traffic pattern: leftleft

Airport Ownership and Management from official FAA records

Ownership: Publicly-owned
Owner: KING CO ARPT DIST NR ONE
P.O. BOX 1639
VASHON, WA 98070
Phone (206) 463-3142
Manager: BOB THERKELSEN
19710 87TH AVE SW
VASHON, WA 98070
Phone 206-463-3142

Airport Operational Statistics

Aircraft based on the field: 28
Single engine airplanes: 28
    
Aircraft operations: avg 38/week *
50% transient general aviation
50% local general aviation
* for 12-month period ending 31 December 2019

Additional Remarks

NGT OPNS ONLY FOR PILOTS FAMILIAR WITH APT CLOSE IN OBSTNS, ALL QUADRANTS.
HILL 5-10 FT W OF RWY EDGE THE FULL LEN.
GATE COMBINATION 1168.
FOR CD CTC SEATTLE APCH AT 206-214-4723.
OCNL LARGE WILD ANIMALS ON ARPT.
RWY 17/35 SOFT WHEN WET.
HANGARS 90 FT E & W OF CNTRLN.
NOISE ABATEMENT PROCEDURES IN EFFECT CTC ARPT MGR 206-463-3142.
TOUCH & GO LDGS NOT RECOMMENDED.
TURBULENCE PSBL AT N END OF RY 17/35 WITH STRONG CROSSWINDS.
RECOMMEND CALLING FOR FIELD CONDITIONS 206-463-3142.
HEL PARKING AREA RSTRD TO MEDEVAC OPNS.

Instrument Procedures

There are no published instrument procedures at 2S1.

Some nearby airports with instrument procedures:

KSEA - Seattle-Tacoma International Airport (7 nm E)
KBFI - Boeing Field/King County International Airport (8 nm NE)
KRNT - Renton Municipal Airport (11 nm E)
KPWT - Bremerton National Airport (12 nm W)
KTIW - Tacoma Narrows Airport (12 nm S)
S50 - Auburn Municipal Airport (13 nm SE)
KTCM - McChord Field Airport (Joint Base Lewis-McChord) (19 nm S)
 
Loc | Ops | Rwys | IFR | FBO | Links
Com | Nav | Svcs | Stats | Notes
Area around 2S1 (Vashon Municipal Airport)
 
Road maps at: MapQuest Bing Google
 
Aerial photo
WARNING: Photo may not be current or correct
Aerial photo of 2S1 (Vashon Municipal Airport)
Taken in June 2007

Do you have a better or more recent aerial photo of Vashon Municipal Airport that you would like to share? If so, please send us your photo.

 
Sectional chart

 
Airport distance calculator
Flying to Vashon Municipal Airport? Find the distance to fly.

From to 2S1

Sunrise and sunset
Times for 18-Sep-2020
 Local
(UTC-7)
 Zulu
(UTC)
Morning civil twilight06:2313:23
Sunrise06:5413:54
Sunset19:1402:14
Evening civil twilight19:4402:44

Current date and time
Zulu (UTC)  18-Sep-2020 18:41:05
Local (UTC-7)  18-Sep-2020 11:41:05
 
METAR
KSEA 
7nm E 
181753Z 25005KT 2 1/2SM HZ FU FEW009 BKN019 OVC090 18/16 A2991 RMK AO2 SLP133 T01830156 10189 20156
KBFI 
9nm NE 
181753Z 22005KT 2SM HZ FU BKN022 BKN090 19/16 A2990 RMK AO2 SLP124 T01940156 10200 20161 55001
KRNT 
11nm E 
181753Z 22005KT 2SM HZ FU OVC027 19/16 A2989 RMK AO2 SLP128 T01940156 10200 20167 55003
KPWT 
11nm W 
181756Z AUTO 00000KT 3SM BR OVC002 17/16 A2991 RMK AO2 SLP131 T01670161 10167 20150 53001
KTIW 
12nm S 
181753Z 23005KT 1 1/2SM BR FU BKN007 BKN100 17/15 A2991 RMK AO2 SLP128 T01670150 10172 20144 55000
TAF
KSEA 
7nm E 
181720Z 1818/1924 18005KT 4SM BR FU SCT025 BKN080 FM182100 VRB04KT 6SM HZ SCT025 OVC050 TEMPO 1822/1902 3SM -SHRA BR BKN025 OVC050 FM190200 VRB03KT 5SM -SHRA BR BKN015 OVC040 FM190800 18006KT 5SM BR VCSH OVC015 FM191600 18006KT P6SM VCSH BKN018 OVC030 FM192100 21007KT P6SM VCSH BKN025 BKN050
KBFI 
9nm NE 
181720Z 1818/1918 18005KT 4SM BR FU SCT025 BKN080 FM182100 VRB04KT 6SM HZ SCT030 OVC050 TEMPO 1822/1902 3SM -SHRA BR BKN030 OVC050 FM190200 VRB03KT 5SM -SHRA BR BKN018 OVC040 FM190800 15005KT 5SM BR VCSH OVC018 FM191600 15056KT P6SM VCSH BKN018 OVC030
KPWT 
11nm W 
181720Z 1818/1918 VRB03KT 4SM BR FU SCT003 SCT025 BKN080 TEMPO 1818/1821 2SM BR FU BKN003 BKN025 OVC080 FM182100 VRB04KT 6SM HZ SCT025 OVC050 TEMPO 1822/1902 3SM -SHRA BR BKN025 OVC050 FM190200 VRB03KT 5SM -SHRA BR BKN015 OVC040 FM190800 18006KT 5SM BR VCSH OVC015 FM191600 18006KT P6SM VCSH BKN018 OVC030
NOTAMs
Click for the latest NOTAMs
NOTAMs are issued by the DoD/FAA and will open in a separate window not controlled by AirNav.

 

 
 

Would you like to see your business listed on this page?

 If your business provides an interesting product or service to pilots, flight crews, aircraft, or users of the Vashon Municipal Airport, you should consider listing it here.  To start the listing process, click on the button below
 
Add a business
 

Other Pages about Vashon Municipal Airport

Update a link
 
Copyright © AirNav, LLC. All rights reserved. Privacy Policy  Contact